createdAt,value
2017-05-20T00:00:18.655Z,2.53
2017-05-20T00:01:19.350Z,2.39
2017-05-20T00:02:19.962Z,2.38
2017-05-20T00:03:20.601Z,2.32
2017-05-20T00:04:21.210Z,2.38
2017-05-20T00:05:21.819Z,2.33
2017-05-20T00:06:22.482Z,2.26
2017-05-20T00:07:23.122Z,2.18
2017-05-20T00:08:23.734Z,2.24
2017-05-20T00:09:24.337Z,2.25
2017-05-20T00:10:24.949Z,2.24
2017-05-20T00:11:25.553Z,2.22
2017-05-20T00:12:26.164Z,2.26
2017-05-20T00:13:26.775Z,2.31
2017-05-20T00:14:27.382Z,2.33
2017-05-20T00:15:27.990Z,2.33
2017-05-20T00:16:28.595Z,2.32
2017-05-20T00:17:29.202Z,2.39
2017-05-20T00:18:29.811Z,2.35
2017-05-20T00:19:30.419Z,2.35
2017-05-20T00:20:31.026Z,2.32
2017-05-20T00:21:31.840Z,2.36
2017-05-20T00:22:32.443Z,2.35
2017-05-20T00:23:33.050Z,2.32
2017-05-20T00:24:33.657Z,2.36
2017-05-20T00:25:34.264Z,2.33
2017-05-20T00:26:34.921Z,2.33
2017-05-20T00:27:35.529Z,2.36
2017-05-20T00:28:36.143Z,2.33
2017-05-20T00:29:36.748Z,2.33
2017-05-20T00:30:37.356Z,2.29
2017-05-20T00:31:38.011Z,2.31
2017-05-20T00:32:38.617Z,2.32
2017-05-20T00:33:39.225Z,2.31
2017-05-20T00:34:39.839Z,2.31
2017-05-20T00:35:40.445Z,2.29
2017-05-20T00:36:41.085Z,2.29
2017-05-20T00:37:41.694Z,2.33
2017-05-20T00:38:42.303Z,2.25
2017-05-20T00:39:42.908Z,2.22
2017-05-20T00:40:43.515Z,2.32
2017-05-20T00:41:44.178Z,2.25
2017-05-20T00:42:44.786Z,2.25
2017-05-20T00:43:45.425Z,2.28
2017-05-20T00:44:46.031Z,2.28
2017-05-20T00:45:46.638Z,2.28
2017-05-20T00:46:47.245Z,2.15
2017-05-20T00:47:47.851Z,2.22
2017-05-20T00:48:48.458Z,2.10
2017-05-20T00:49:49.068Z,2.02
2017-05-20T00:50:49.676Z,2.02
2017-05-20T00:51:50.333Z,1.92
2017-05-20T00:52:50.940Z,1.87
2017-05-20T00:53:51.554Z,1.80
2017-05-20T00:54:52.192Z,1.74
2017-05-20T00:55:52.797Z,1.74
2017-05-20T00:56:53.461Z,1.76
2017-05-20T00:57:54.066Z,1.67
2017-05-20T00:58:54.680Z,1.76
2017-05-20T00:59:55.285Z,1.77
2017-05-20T01:00:55.899Z,1.71
2017-05-20T01:01:56.502Z,1.71
2017-05-20T01:02:57.108Z,1.73
2017-05-20T01:03:57.714Z,1.70
2017-05-20T01:04:58.326Z,1.78
2017-05-20T01:05:58.928Z,1.77
2017-05-20T01:06:59.587Z,1.84
2017-05-20T01:08:00.196Z,1.73
2017-05-20T01:09:00.801Z,1.77
2017-05-20T01:10:01.407Z,1.80
2017-05-20T01:11:02.021Z,1.77
2017-05-20T01:12:02.675Z,1.77
2017-05-20T01:13:03.281Z,1.80
2017-05-20T01:14:03.889Z,1.84
2017-05-20T01:15:04.497Z,1.84
2017-05-20T01:16:05.106Z,1.74
2017-05-20T01:17:05.712Z,1.80
2017-05-20T01:18:06.354Z,1.87
2017-05-20T01:19:06.961Z,1.85
2017-05-20T01:20:07.569Z,1.87
2017-05-20T01:21:08.180Z,1.84
2017-05-20T01:22:08.785Z,1.92
2017-05-20T01:23:09.396Z,1.95
2017-05-20T01:24:10.010Z,1.92
2017-05-20T01:25:10.608Z,1.99
2017-05-20T01:26:11.214Z,1.92
2017-05-20T01:27:11.823Z,1.91
2017-05-20T01:28:12.432Z,1.80
2017-05-20T01:29:13.078Z,1.81
2017-05-20T01:30:13.689Z,1.81
2017-05-20T01:31:14.292Z,1.77
2017-05-20T01:32:14.949Z,1.81
2017-05-20T01:33:15.555Z,1.81
2017-05-20T01:34:16.161Z,1.78
2017-05-20T01:35:16.767Z,1.76
2017-05-20T01:36:17.373Z,1.73
2017-05-20T01:37:18.037Z,1.81
2017-05-20T01:38:18.640Z,1.80
2017-05-20T01:39:19.248Z,1.78
2017-05-20T01:40:19.888Z,1.87
2017-05-20T01:41:20.500Z,1.74
2017-05-20T01:42:21.103Z,1.78
2017-05-20T01:43:21.715Z,1.80
2017-05-20T01:44:22.318Z,1.81
2017-05-20T01:45:22.930Z,1.73
2017-05-20T01:46:23.540Z,1.77
2017-05-20T01:47:24.145Z,1.76
2017-05-20T01:48:24.753Z,1.70
2017-05-20T01:49:25.367Z,1.76
2017-05-20T01:50:25.976Z,1.70
2017-05-20T01:51:26.581Z,1.76
2017-05-20T01:52:27.188Z,1.74
2017-05-20T01:53:27.792Z,1.76
2017-05-20T01:54:28.399Z,1.78
2017-05-20T01:55:29.011Z,1.80
2017-05-20T01:56:29.613Z,1.81
2017-05-20T01:57:30.276Z,1.76
2017-05-20T01:58:30.887Z,1.77
2017-05-20T01:59:31.489Z,1.74
2017-05-20T02:00:32.129Z,1.67
2017-05-20T02:01:32.736Z,1.70
2017-05-20T02:02:33.391Z,1.74
2017-05-20T02:03:34.006Z,1.74
2017-05-20T02:04:34.608Z,1.76
2017-05-20T02:05:35.214Z,1.77
2017-05-20T02:06:35.820Z,1.70
2017-05-20T02:07:36.434Z,1.77
2017-05-20T02:08:37.045Z,1.70
2017-05-20T02:09:37.648Z,1.73
2017-05-20T02:10:38.255Z,1.71
2017-05-20T02:11:38.868Z,1.76
2017-05-20T02:12:39.476Z,1.67
2017-05-20T02:13:40.085Z,1.66
2017-05-20T02:14:40.689Z,1.67
2017-05-20T02:15:41.294Z,1.67
2017-05-20T02:16:41.906Z,1.66
2017-05-20T02:17:42.518Z,1.62
2017-05-20T02:18:43.122Z,1.62
2017-05-20T02:19:43.728Z,1.67
2017-05-20T02:20:44.335Z,1.70
2017-05-20T02:21:45.007Z,1.58
2017-05-20T02:22:45.607Z,1.59
2017-05-20T02:23:46.213Z,1.58
2017-05-20T02:24:46.821Z,1.56
2017-05-20T02:25:47.428Z,1.56
2017-05-20T02:26:48.034Z,1.55
2017-05-20T02:27:48.646Z,1.53
2017-05-20T02:28:49.252Z,1.62
2017-05-20T02:29:49.857Z,1.60
2017-05-20T02:30:50.464Z,1.68
2017-05-20T02:31:51.102Z,1.70
2017-05-20T02:32:51.808Z,1.62
2017-05-20T02:33:52.365Z,1.67
2017-05-20T02:34:52.970Z,1.71
2017-05-20T02:35:53.577Z,1.63
2017-05-20T02:36:54.187Z,1.60
2017-05-20T02:37:54.794Z,1.71
2017-05-20T02:38:55.405Z,1.63
2017-05-20T02:39:56.013Z,1.59
2017-05-20T02:40:56.617Z,1.63
2017-05-20T02:41:57.225Z,1.66
2017-05-20T02:42:57.881Z,1.68
2017-05-20T02:43:58.490Z,1.58
2017-05-20T02:44:59.098Z,1.59
2017-05-20T02:45:59.706Z,1.55
2017-05-20T02:47:00.310Z,1.41
2017-05-20T02:48:00.966Z,1.56
2017-05-20T02:49:01.573Z,1.50
2017-05-20T02:50:02.185Z,1.56
2017-05-20T02:51:02.791Z,1.52
2017-05-20T02:52:03.393Z,1.55
2017-05-20T02:53:04.001Z,1.53
2017-05-20T02:54:04.607Z,1.58
2017-05-20T02:55:05.214Z,1.55
2017-05-20T02:56:05.822Z,1.55
2017-05-20T02:57:06.437Z,1.53
2017-05-20T02:58:07.039Z,1.55
2017-05-20T02:59:07.679Z,1.55
2017-05-20T03:00:08.289Z,1.55
2017-05-20T03:01:08.899Z,1.55
2017-05-20T03:02:09.510Z,1.59
2017-05-20T03:03:10.169Z,1.58
2017-05-20T03:04:10.779Z,1.56
2017-05-20T03:05:11.382Z,1.52
2017-05-20T03:06:11.989Z,1.55
2017-05-20T03:07:12.595Z,1.44
2017-05-20T03:08:13.240Z,1.45
2017-05-20T03:09:13.842Z,1.44
2017-05-20T03:10:14.455Z,1.42
2017-05-20T03:11:15.064Z,1.38
2017-05-20T03:12:15.703Z,1.35
2017-05-20T03:13:16.316Z,1.38
2017-05-20T03:14:16.919Z,1.35
2017-05-20T03:15:17.525Z,1.40
2017-05-20T03:16:18.131Z,1.35
2017-05-20T03:17:18.738Z,1.34
2017-05-20T03:18:19.352Z,1.31
2017-05-20T03:19:19.957Z,1.37
2017-05-20T03:20:20.601Z,1.34
2017-05-20T03:21:21.236Z,1.40
2017-05-20T03:22:21.847Z,1.30
2017-05-20T03:23:22.485Z,1.32
2017-05-20T03:24:23.097Z,1.26
2017-05-20T03:25:23.706Z,1.31
2017-05-20T03:26:24.310Z,1.26
2017-05-20T03:27:24.920Z,1.24
2017-05-20T03:28:25.580Z,1.23
2017-05-20T03:29:26.183Z,1.23
2017-05-20T03:30:26.822Z,1.28
2017-05-20T03:31:27.460Z,1.20
2017-05-20T03:32:28.073Z,1.17
2017-05-20T03:33:28.675Z,1.20
2017-05-20T03:34:29.282Z,1.14
2017-05-20T03:35:29.888Z,1.10
2017-05-20T03:36:30.532Z,1.06
2017-05-20T03:37:31.136Z,1.08
2017-05-20T03:38:31.740Z,1.14
2017-05-20T03:39:32.350Z,1.08
2017-05-20T03:40:32.957Z,1.10
2017-05-20T03:41:33.563Z,1.06
2017-05-20T03:42:34.169Z,1.20
2017-05-20T03:43:34.776Z,1.19
2017-05-20T03:44:35.382Z,1.20
2017-05-20T03:45:35.993Z,1.24
2017-05-20T03:46:36.596Z,1.22
2017-05-20T03:47:37.201Z,1.22
2017-05-20T03:48:37.863Z,1.22
2017-05-20T03:49:38.474Z,1.20
2017-05-20T03:50:39.077Z,1.19
2017-05-20T03:51:39.684Z,1.19
2017-05-20T03:52:40.289Z,1.19
2017-05-20T03:53:40.896Z,1.23
2017-05-20T03:54:41.511Z,1.19
2017-05-20T03:55:42.114Z,1.19
2017-05-20T03:56:42.722Z,1.13
2017-05-20T03:57:43.329Z,1.13
2017-05-20T03:58:43.945Z,1.16
2017-05-20T03:59:44.548Z,1.19
2017-05-20T04:00:45.154Z,1.19
2017-05-20T04:01:45.768Z,1.14
2017-05-20T04:02:46.378Z,1.10
2017-05-20T04:03:46.982Z,1.13
2017-05-20T04:04:47.595Z,1.17
2017-05-20T04:05:48.202Z,1.17
2017-05-20T04:06:48.809Z,1.22
2017-05-20T04:07:49.417Z,1.17
2017-05-20T04:08:50.075Z,1.17
2017-05-20T04:09:50.681Z,1.16
2017-05-20T04:10:51.288Z,1.10
2017-05-20T04:11:51.893Z,1.17
2017-05-20T04:12:52.500Z,1.19
2017-05-20T04:13:53.165Z,1.19
2017-05-20T04:14:53.774Z,1.19
2017-05-20T04:15:54.385Z,1.20
2017-05-20T04:16:54.995Z,1.16
2017-05-20T04:17:55.605Z,1.19
2017-05-20T04:18:56.260Z,1.17
2017-05-20T04:19:56.872Z,1.17
2017-05-20T04:20:57.482Z,1.23
2017-05-20T04:21:58.090Z,1.20
2017-05-20T04:22:58.695Z,1.16
2017-05-20T04:23:59.351Z,1.19
2017-05-20T04:24:59.962Z,1.23
2017-05-20T04:26:00.570Z,1.34
2017-05-20T04:27:01.177Z,1.30
2017-05-20T04:28:01.790Z,1.32
2017-05-20T04:29:02.394Z,1.38
2017-05-20T04:30:03.000Z,1.31
2017-05-20T04:31:03.607Z,1.31
2017-05-20T04:32:04.214Z,1.24
2017-05-20T04:33:04.823Z,1.31
2017-05-20T04:34:05.432Z,1.32
2017-05-20T04:35:06.038Z,1.31
2017-05-20T04:36:06.645Z,1.41
2017-05-20T04:37:07.254Z,1.40
2017-05-20T04:38:07.861Z,1.32
2017-05-20T04:39:08.522Z,1.37
2017-05-20T04:40:09.159Z,1.41
2017-05-20T04:41:09.770Z,1.38
2017-05-20T04:42:10.410Z,1.30
2017-05-20T04:43:11.015Z,1.30
2017-05-20T04:44:11.680Z,1.32
2017-05-20T04:45:12.284Z,1.20
2017-05-20T04:46:12.897Z,1.28
2017-05-20T04:47:13.537Z,1.19
2017-05-20T04:48:14.143Z,1.17
2017-05-20T04:49:14.750Z,1.30
2017-05-20T04:50:15.358Z,1.23
2017-05-20T04:51:15.965Z,1.35
2017-05-20T04:52:16.571Z,1.28
2017-05-20T04:53:17.179Z,1.38
2017-05-20T04:54:17.842Z,1.44
2017-05-20T04:55:18.448Z,1.49
2017-05-20T04:56:19.088Z,1.45
2017-05-20T04:57:19.694Z,1.52
2017-05-20T04:58:20.302Z,1.53
2017-05-20T04:59:20.959Z,1.49
2017-05-20T05:00:21.572Z,1.55
2017-05-20T05:01:22.178Z,1.60
2017-05-20T05:02:22.787Z,1.68
2017-05-20T05:03:23.394Z,1.67
2017-05-20T05:04:24.000Z,1.62
2017-05-20T05:05:24.607Z,1.71
2017-05-20T05:06:25.221Z,1.71
2017-05-20T05:07:25.825Z,1.70
2017-05-20T05:08:26.438Z,1.71
2017-05-20T05:09:27.043Z,1.67
2017-05-20T05:10:27.652Z,1.63
2017-05-20T05:11:28.260Z,1.71
2017-05-20T05:12:28.919Z,1.63
2017-05-20T05:13:29.472Z,1.60
2017-05-20T05:14:30.118Z,1.59
2017-05-20T05:15:30.723Z,1.59
2017-05-20T05:16:31.336Z,1.59
2017-05-20T05:17:31.940Z,1.58
2017-05-20T05:18:32.547Z,1.67
2017-05-20T05:19:33.154Z,1.66
2017-05-20T05:20:33.769Z,1.62
2017-05-20T05:21:34.375Z,1.59
2017-05-20T05:22:34.987Z,1.63
2017-05-20T05:23:35.598Z,1.67
2017-05-20T05:24:36.202Z,1.67
2017-05-20T05:25:36.810Z,1.59
2017-05-20T05:26:37.416Z,1.56
2017-05-20T05:27:38.024Z,1.59
2017-05-20T05:28:38.630Z,1.66
2017-05-20T05:29:39.295Z,1.60
2017-05-20T05:30:39.901Z,1.55
2017-05-20T05:31:40.512Z,1.59
2017-05-20T05:32:41.117Z,1.58
2017-05-20T05:33:41.726Z,1.62
2017-05-20T05:34:42.392Z,1.56
2017-05-20T05:35:43.035Z,1.50
2017-05-20T05:36:43.647Z,1.55
2017-05-20T05:37:44.285Z,1.45
2017-05-20T05:38:44.899Z,1.37
2017-05-20T05:39:45.558Z,1.32
2017-05-20T05:40:46.166Z,1.26
2017-05-20T05:41:46.778Z,1.32
2017-05-20T05:42:47.388Z,1.24
2017-05-20T05:43:48.033Z,1.41
2017-05-20T05:44:48.693Z,1.45
2017-05-20T05:45:49.301Z,1.58
2017-05-20T05:46:49.910Z,1.67
2017-05-20T05:47:50.520Z,1.77
2017-05-20T05:48:51.130Z,1.76
2017-05-20T05:49:51.795Z,1.88
2017-05-20T05:50:52.402Z,2.02
2017-05-20T05:51:53.017Z,2.02
2017-05-20T05:52:53.625Z,2.13
2017-05-20T05:53:54.235Z,2.10
2017-05-20T05:54:54.851Z,2.13
2017-05-20T05:55:55.459Z,2.13
2017-05-20T05:56:56.072Z,2.22
2017-05-20T05:57:56.678Z,2.18
2017-05-20T05:58:57.291Z,2.24
2017-05-20T05:59:57.957Z,2.33
2017-05-20T06:00:58.562Z,2.26
2017-05-20T06:01:59.172Z,2.31
2017-05-20T06:02:59.780Z,2.33
2017-05-20T06:04:00.425Z,2.38
2017-05-20T06:05:01.085Z,2.42
2017-05-20T06:06:01.696Z,2.36
2017-05-20T06:07:02.307Z,2.39
2017-05-20T06:08:02.921Z,2.32
2017-05-20T06:09:03.533Z,2.38
2017-05-20T06:10:04.198Z,2.35
2017-05-20T06:11:04.806Z,2.33
2017-05-20T06:12:05.422Z,2.35
2017-05-20T06:13:06.025Z,2.39
2017-05-20T06:14:06.635Z,2.35
2017-05-20T06:15:07.297Z,2.32
2017-05-20T06:16:07.905Z,2.33
2017-05-20T06:17:08.517Z,2.33
2017-05-20T06:18:09.127Z,2.28
2017-05-20T06:19:09.737Z,2.20
2017-05-20T06:20:10.406Z,2.25
2017-05-20T06:21:11.009Z,2.24
2017-05-20T06:22:11.619Z,2.33
2017-05-20T06:23:12.234Z,2.36
2017-05-20T06:24:12.841Z,2.43
2017-05-20T06:25:13.452Z,2.33
2017-05-20T06:26:14.070Z,2.44
2017-05-20T06:27:14.678Z,2.44
2017-05-20T06:28:15.288Z,2.35
2017-05-20T06:29:15.903Z,2.36
2017-05-20T06:30:16.552Z,2.38
2017-05-20T06:31:17.160Z,2.44
2017-05-20T06:32:17.771Z,2.49
2017-05-20T06:33:18.380Z,2.49
2017-05-20T06:34:19.022Z,2.49
2017-05-20T06:35:19.683Z,2.43
2017-05-20T06:36:20.292Z,2.49
2017-05-20T06:37:20.902Z,2.44
2017-05-20T06:38:21.513Z,2.47
2017-05-20T06:39:22.124Z,2.49
2017-05-20T06:40:22.733Z,2.36
2017-05-20T06:41:23.345Z,2.43
2017-05-20T06:42:23.954Z,2.38
2017-05-20T06:43:24.569Z,2.26
2017-05-20T06:44:25.178Z,2.25
2017-05-20T06:45:25.789Z,2.18
2017-05-20T06:46:26.398Z,2.22
2017-05-20T06:47:27.008Z,2.22
2017-05-20T06:48:27.622Z,2.11
2017-05-20T06:49:28.236Z,2.10
2017-05-20T06:50:28.843Z,2.06
2017-05-20T06:51:29.453Z,2.07
2017-05-20T06:52:30.063Z,2.10
2017-05-20T06:53:30.673Z,2.13
2017-05-20T06:54:31.289Z,2.14
2017-05-20T06:55:31.894Z,2.15
2017-05-20T06:56:32.511Z,2.15
2017-05-20T06:57:33.118Z,2.24
2017-05-20T06:58:33.726Z,2.22
2017-05-20T06:59:34.342Z,2.17
2017-05-20T07:00:35.004Z,2.22
2017-05-20T07:01:35.612Z,2.18
2017-05-20T07:02:36.226Z,2.25
2017-05-20T07:03:36.832Z,2.20
2017-05-20T07:04:37.448Z,2.28
2017-05-20T07:05:38.055Z,2.33
2017-05-20T07:06:38.669Z,2.35
2017-05-20T07:07:39.278Z,2.38
2017-05-20T07:08:39.887Z,2.31
2017-05-20T07:09:40.497Z,2.35
2017-05-20T07:10:41.157Z,2.31
2017-05-20T07:11:41.773Z,2.32
2017-05-20T07:12:42.417Z,2.25
2017-05-20T07:13:43.032Z,2.25
2017-05-20T07:14:43.644Z,2.39
2017-05-20T07:15:44.301Z,2.35
2017-05-20T07:16:44.912Z,2.44
2017-05-20T07:17:45.523Z,2.36
2017-05-20T07:18:46.132Z,2.35
2017-05-20T07:19:46.742Z,2.35
2017-05-20T07:20:47.351Z,2.29
2017-05-20T07:21:47.960Z,2.25
2017-05-20T07:22:48.568Z,2.29
2017-05-20T07:23:49.177Z,2.36
2017-05-20T07:24:49.788Z,2.38
2017-05-20T07:25:50.455Z,2.44
2017-05-20T07:26:51.060Z,2.43
2017-05-20T07:27:51.673Z,2.50
2017-05-20T07:28:52.284Z,2.56
2017-05-20T07:29:52.893Z,2.43
2017-05-20T07:30:53.551Z,2.49
2017-05-20T07:31:54.193Z,2.53
2017-05-20T07:32:54.803Z,2.51
2017-05-20T07:33:55.411Z,2.56
2017-05-20T07:34:56.021Z,2.50
2017-05-20T07:35:56.680Z,2.54
2017-05-20T07:36:57.297Z,2.64
2017-05-20T07:37:57.902Z,2.56
2017-05-20T07:38:58.514Z,2.79
2017-05-20T07:39:59.129Z,2.80
2017-05-20T07:40:59.744Z,2.93
2017-05-20T07:42:00.354Z,3.05
2017-05-20T07:43:00.961Z,3.00
2017-05-20T07:44:01.574Z,3.14
2017-05-20T07:45:02.213Z,3.18
2017-05-20T07:46:02.829Z,3.23
2017-05-20T07:47:03.436Z,3.19
2017-05-20T07:48:04.078Z,3.22
2017-05-20T07:49:04.687Z,3.19
2017-05-20T07:50:05.302Z,3.13
2017-05-20T07:51:05.912Z,3.25
2017-05-20T07:52:06.523Z,3.21
2017-05-20T07:53:07.138Z,3.28
2017-05-20T07:54:07.746Z,3.31
2017-05-20T07:55:08.361Z,3.44
2017-05-20T07:56:08.970Z,3.42
2017-05-20T07:57:09.581Z,3.36
2017-05-20T07:58:10.191Z,3.45
2017-05-20T07:59:10.801Z,3.47
2017-05-20T08:00:11.416Z,3.47
2017-05-20T08:01:12.023Z,3.53
2017-05-20T08:02:12.640Z,3.58
2017-05-20T08:03:13.247Z,3.69
2017-05-20T08:04:13.864Z,3.65
2017-05-20T08:05:14.471Z,3.70
2017-05-20T08:06:15.091Z,3.78
2017-05-20T08:07:15.731Z,3.88
2017-05-20T08:08:16.341Z,3.96
2017-05-20T08:09:16.960Z,3.99
2017-05-20T08:10:17.567Z,4.12
2017-05-20T08:11:18.228Z,4.24
2017-05-20T08:12:18.837Z,4.26
2017-05-20T08:13:19.456Z,4.19
2017-05-20T08:14:20.064Z,4.31
2017-05-20T08:15:20.674Z,4.37
2017-05-20T08:16:21.291Z,4.35
2017-05-20T08:17:21.905Z,4.38
2017-05-20T08:18:22.516Z,4.37
2017-05-20T08:19:23.126Z,4.19
2017-05-20T08:20:23.737Z,4.34
2017-05-20T08:21:24.348Z,4.19
2017-05-20T08:22:24.964Z,4.14
2017-05-20T08:23:25.577Z,4.08
2017-05-20T08:24:26.195Z,4.23
2017-05-20T08:25:26.802Z,4.10
2017-05-20T08:26:27.498Z,4.14
2017-05-20T08:27:28.107Z,4.13
2017-05-20T08:28:28.718Z,4.19
2017-05-20T08:29:29.329Z,4.23
2017-05-20T08:30:29.941Z,4.34
2017-05-20T08:31:30.607Z,4.22
2017-05-20T08:32:31.218Z,4.34
2017-05-20T08:33:31.826Z,4.26
2017-05-20T08:34:32.437Z,4.40
2017-05-20T08:35:33.049Z,4.34
2017-05-20T08:36:33.711Z,4.42
2017-05-20T08:37:34.321Z,4.37
2017-05-20T08:38:34.936Z,4.44
2017-05-20T08:39:35.545Z,4.44
2017-05-20T08:40:36.159Z,4.35
2017-05-20T08:41:36.771Z,4.35
2017-05-20T08:42:37.381Z,4.50
2017-05-20T08:43:37.999Z,4.56
2017-05-20T08:44:38.606Z,4.82
2017-05-20T08:45:39.222Z,5.00
2017-05-20T08:46:39.881Z,4.92
2017-05-20T08:47:40.499Z,5.07
2017-05-20T08:48:41.106Z,5.11
2017-05-20T08:49:41.717Z,5.17
2017-05-20T08:50:42.333Z,5.12
2017-05-20T08:51:42.943Z,5.12
2017-05-20T08:52:43.559Z,5.14
2017-05-20T08:53:44.169Z,5.10
2017-05-20T08:54:44.782Z,5.05
2017-05-20T08:55:45.389Z,5.10
2017-05-20T08:56:46.057Z,5.10
2017-05-20T08:57:46.665Z,5.12
2017-05-20T08:58:47.276Z,5.17
2017-05-20T08:59:47.893Z,5.12
2017-05-20T09:00:48.500Z,5.11
2017-05-20T09:01:49.165Z,5.23
2017-05-20T09:02:49.810Z,5.25
2017-05-20T09:03:50.427Z,5.21
2017-05-20T09:04:51.036Z,5.26
2017-05-20T09:05:51.646Z,5.26
2017-05-20T09:06:52.307Z,5.14
2017-05-20T09:07:52.927Z,5.18
2017-05-20T09:08:53.540Z,5.18
2017-05-20T09:09:54.155Z,5.20
2017-05-20T09:10:54.763Z,5.29
2017-05-20T09:11:55.413Z,5.36
2017-05-20T09:12:56.030Z,5.47
2017-05-20T09:13:56.639Z,5.53
2017-05-20T09:14:57.258Z,5.57
2017-05-20T09:15:57.866Z,5.62
2017-05-20T09:16:58.483Z,5.72
2017-05-20T09:17:59.093Z,5.75
2017-05-20T09:18:59.706Z,5.72
2017-05-20T09:20:00.321Z,5.79
2017-05-20T09:21:00.929Z,5.82
2017-05-20T09:22:01.593Z,5.76
2017-05-20T09:23:02.203Z,5.91
2017-05-20T09:24:02.822Z,6.09
2017-05-20T09:25:03.432Z,6.14
2017-05-20T09:26:04.042Z,6.09
2017-05-20T09:27:04.654Z,6.04
2017-05-20T09:28:05.300Z,5.94
2017-05-20T09:29:05.911Z,6.11
2017-05-20T09:30:06.528Z,5.99
2017-05-20T09:31:07.138Z,6.02
2017-05-20T09:32:07.803Z,6.07
2017-05-20T09:33:08.447Z,5.99
2017-05-20T09:34:09.059Z,6.05
2017-05-20T09:35:09.672Z,6.04
2017-05-20T09:36:10.283Z,6.16
2017-05-20T09:37:10.952Z,6.26
2017-05-20T09:38:11.565Z,6.27
2017-05-20T09:39:12.175Z,6.30
2017-05-20T09:40:12.787Z,6.17
2017-05-20T09:41:13.400Z,6.12
2017-05-20T09:42:14.011Z,6.26
2017-05-20T09:43:14.630Z,6.35
2017-05-20T09:44:15.276Z,6.42
2017-05-20T09:45:15.889Z,6.56
2017-05-20T09:46:16.499Z,6.42
2017-05-20T09:47:17.193Z,6.44
2017-05-20T09:48:17.805Z,6.57
2017-05-20T09:49:18.419Z,6.54
2017-05-20T09:50:19.030Z,6.59
2017-05-20T09:51:19.645Z,6.70
2017-05-20T09:52:20.307Z,6.75
2017-05-20T09:53:20.924Z,6.64
2017-05-20T09:54:21.571Z,6.56
2017-05-20T09:55:22.182Z,6.42
2017-05-20T09:56:22.795Z,6.52
2017-05-20T09:57:23.457Z,6.66
2017-05-20T09:58:24.069Z,6.89
2017-05-20T09:59:24.686Z,6.93
2017-05-20T10:00:25.301Z,7.05
2017-05-20T10:01:25.917Z,7.13
2017-05-20T10:02:26.528Z,7.13
2017-05-20T10:03:27.141Z,7.13
2017-05-20T10:04:27.761Z,6.99
2017-05-20T10:05:28.371Z,7.03
2017-05-20T10:06:28.988Z,6.88
2017-05-20T10:07:29.648Z,6.99
2017-05-20T10:08:30.260Z,7.02
2017-05-20T10:09:30.874Z,7.00
2017-05-20T10:10:31.489Z,7.11
2017-05-20T10:11:32.101Z,7.25
2017-05-20T10:12:32.745Z,7.36
2017-05-20T10:13:33.363Z,7.45
2017-05-20T10:14:33.977Z,7.47
2017-05-20T10:15:34.625Z,7.51
2017-05-20T10:16:35.243Z,7.47
2017-05-20T10:17:35.904Z,7.48
2017-05-20T10:18:36.549Z,7.60
2017-05-20T10:19:37.168Z,7.61
2017-05-20T10:20:37.784Z,7.73
2017-05-20T10:21:38.395Z,7.77
2017-05-20T10:22:39.014Z,7.70
2017-05-20T10:23:39.659Z,7.90
2017-05-20T10:24:40.277Z,8.03
2017-05-20T10:25:40.889Z,8.08
2017-05-20T10:26:41.508Z,8.16
2017-05-20T10:27:42.168Z,8.36
2017-05-20T10:28:42.781Z,8.36
2017-05-20T10:29:43.395Z,8.46
2017-05-20T10:30:44.008Z,8.53
2017-05-20T10:31:44.654Z,8.46
2017-05-20T10:32:45.267Z,8.55
2017-05-20T10:33:45.884Z,8.52
2017-05-20T10:34:46.494Z,8.53
2017-05-20T10:35:47.109Z,8.45
2017-05-20T10:36:47.723Z,8.37
2017-05-20T10:37:48.372Z,8.38
2017-05-20T10:38:48.985Z,8.37
2017-05-20T10:39:49.599Z,8.44
2017-05-20T10:40:50.211Z,8.49
2017-05-20T10:41:50.826Z,8.58
2017-05-20T10:42:51.491Z,8.56
2017-05-20T10:43:52.104Z,8.69
2017-05-20T10:44:52.716Z,8.70
2017-05-20T10:45:53.330Z,8.76
2017-05-20T10:46:53.944Z,8.70
2017-05-20T10:47:54.606Z,8.67
2017-05-20T10:48:55.224Z,8.66
2017-05-20T10:49:55.841Z,8.60
2017-05-20T10:50:56.459Z,8.64
2017-05-20T10:51:57.069Z,8.69
2017-05-20T10:52:57.733Z,8.84
2017-05-20T10:53:58.348Z,8.71
2017-05-20T10:54:58.963Z,8.71
2017-05-20T10:55:59.577Z,8.79
2017-05-20T10:57:00.195Z,8.71
2017-05-20T10:58:00.805Z,8.84
2017-05-20T10:59:01.426Z,8.89
2017-05-20T11:00:02.039Z,8.99
2017-05-20T11:01:02.651Z,8.94
2017-05-20T11:02:03.265Z,9.16
2017-05-20T11:03:03.879Z,9.34
2017-05-20T11:04:04.495Z,9.31
2017-05-20T11:05:05.111Z,9.29
2017-05-20T11:06:05.730Z,9.28
2017-05-20T11:07:06.341Z,9.22
2017-05-20T11:08:06.957Z,9.13
2017-05-20T11:09:07.575Z,9.06
2017-05-20T11:10:08.191Z,9.10
2017-05-20T11:11:08.805Z,9.04
2017-05-20T11:12:09.418Z,9.14
2017-05-20T11:13:10.084Z,9.28
2017-05-20T11:14:10.703Z,9.28
2017-05-20T11:15:11.345Z,9.25
2017-05-20T11:16:11.959Z,9.34
2017-05-20T11:17:12.576Z,9.39
2017-05-20T11:18:13.198Z,9.40
2017-05-20T11:19:13.810Z,9.43
2017-05-20T11:20:14.426Z,9.28
2017-05-20T11:21:15.039Z,9.34
2017-05-20T11:22:15.657Z,9.37
2017-05-20T11:23:16.275Z,9.37
2017-05-20T11:24:16.896Z,9.43
2017-05-20T11:25:17.507Z,9.44
2017-05-20T11:26:18.122Z,9.43
2017-05-20T11:27:18.738Z,9.40
2017-05-20T11:28:19.394Z,9.34
2017-05-20T11:29:20.008Z,9.40
2017-05-20T11:30:20.629Z,9.47
2017-05-20T11:31:21.247Z,9.46
2017-05-20T11:32:21.860Z,9.76
2017-05-20T11:33:22.474Z,9.72
2017-05-20T11:34:23.090Z,9.56
2017-05-20T11:35:23.703Z,9.40
2017-05-20T11:36:24.321Z,9.40
2017-05-20T11:37:24.939Z,9.50
2017-05-20T11:38:25.607Z,9.47
2017-05-20T11:39:26.224Z,9.44
2017-05-20T11:40:26.869Z,9.51
2017-05-20T11:41:27.490Z,9.50
2017-05-20T11:42:28.102Z,9.62
2017-05-20T11:43:28.768Z,9.58
2017-05-20T11:44:29.385Z,9.66
2017-05-20T11:45:30.035Z,9.74
2017-05-20T11:46:30.691Z,9.87
2017-05-20T11:47:31.303Z,10.12
2017-05-20T11:48:31.977Z,10.37
2017-05-20T11:49:32.591Z,10.40
2017-05-20T11:50:33.216Z,10.53
2017-05-20T11:51:33.831Z,10.42
2017-05-20T11:52:34.452Z,10.34
2017-05-20T11:53:35.117Z,10.35
2017-05-20T11:54:35.737Z,10.10
2017-05-20T11:55:36.352Z,10.01
2017-05-20T11:56:37.087Z,9.83
2017-05-20T11:57:37.713Z,9.73
2017-05-20T11:58:38.329Z,9.58
2017-05-20T11:59:38.944Z,9.43
2017-05-20T12:00:39.559Z,9.36
2017-05-20T12:01:40.172Z,9.19
2017-05-20T12:02:40.788Z,9.28
2017-05-20T12:03:41.453Z,9.29
2017-05-20T12:04:42.075Z,9.51
2017-05-20T12:05:42.693Z,9.73
2017-05-20T12:06:43.306Z,9.55
2017-05-20T12:07:43.921Z,9.66
2017-05-20T12:08:44.588Z,9.74
2017-05-20T12:09:45.204Z,9.97
2017-05-20T12:10:45.821Z,10.07
2017-05-20T12:11:46.438Z,10.26
2017-05-20T12:12:47.054Z,10.34
2017-05-20T12:13:47.671Z,10.13
2017-05-20T12:14:48.292Z,9.84
2017-05-20T12:15:48.908Z,9.62
2017-05-20T12:16:49.519Z,9.43
2017-05-20T12:17:50.165Z,9.36
2017-05-20T12:18:50.781Z,9.25
2017-05-20T12:19:51.399Z,8.99
2017-05-20T12:20:52.012Z,8.87
2017-05-20T12:21:52.628Z,8.79
2017-05-20T12:22:53.241Z,8.79
2017-05-20T12:23:53.906Z,8.69
2017-05-20T12:24:54.523Z,8.81
2017-05-20T12:25:55.138Z,8.73
2017-05-20T12:26:55.753Z,8.74
2017-05-20T12:27:56.368Z,8.64
2017-05-20T12:28:57.150Z,8.70
2017-05-20T12:29:57.784Z,8.74
2017-05-20T12:30:58.399Z,8.69
2017-05-20T12:31:59.020Z,8.71
2017-05-20T12:32:59.633Z,8.82
2017-05-20T12:34:00.246Z,8.91
2017-05-20T12:35:00.860Z,8.88
2017-05-20T12:36:01.476Z,8.87
2017-05-20T12:37:02.092Z,8.94
2017-05-20T12:38:02.704Z,9.00
2017-05-20T12:39:03.367Z,9.06
2017-05-20T12:40:03.988Z,9.28
2017-05-20T12:41:04.602Z,9.34
2017-05-20T12:42:05.214Z,9.36
2017-05-20T12:43:05.827Z,9.23
2017-05-20T12:44:06.448Z,9.40
2017-05-20T12:45:07.059Z,9.34
2017-05-20T12:46:07.708Z,9.25
2017-05-20T12:47:08.318Z,9.31
2017-05-20T12:48:08.932Z,9.29
2017-05-20T12:49:09.597Z,9.34
2017-05-20T12:50:10.211Z,9.37
2017-05-20T12:51:10.826Z,9.25
2017-05-20T12:52:11.441Z,9.25
2017-05-20T12:53:12.054Z,9.41
2017-05-20T12:54:12.676Z,9.29
2017-05-20T12:55:13.288Z,9.39
2017-05-20T12:56:13.902Z,9.54
2017-05-20T12:57:14.516Z,9.65
2017-05-20T12:58:15.132Z,9.64
2017-05-20T12:59:15.795Z,9.56
2017-05-20T13:00:16.450Z,9.62
2017-05-20T13:01:17.069Z,9.55
2017-05-20T13:02:17.682Z,9.55
2017-05-20T13:03:18.297Z,9.40
2017-05-20T13:04:18.961Z,9.34
2017-05-20T13:05:19.577Z,9.36
2017-05-20T13:06:20.193Z,9.28
2017-05-20T13:07:20.808Z,9.28
2017-05-20T13:08:21.423Z,9.26
2017-05-20T13:09:22.042Z,9.23
2017-05-20T13:10:22.656Z,9.22
2017-05-20T13:11:23.277Z,9.06
2017-05-20T13:12:23.891Z,8.88
2017-05-20T13:13:24.504Z,8.92
2017-05-20T13:14:25.117Z,9.02
2017-05-20T13:15:25.732Z,9.06
2017-05-20T13:16:26.348Z,9.10
2017-05-20T13:17:26.968Z,8.92
2017-05-20T13:18:27.578Z,8.95
2017-05-20T13:19:28.499Z,8.97
2017-05-20T13:20:29.111Z,9.11
2017-05-20T13:21:29.755Z,9.25
2017-05-20T13:22:30.369Z,9.29
2017-05-20T13:23:30.981Z,9.13
2017-05-20T13:24:31.603Z,9.10
2017-05-20T13:25:32.216Z,9.08
2017-05-20T13:26:32.865Z,9.26